sensor_id;sensor_type;location;lat;lon;timestamp;P1;durP1;ratioP1;P2;durP2;ratioP2
74689;SDS011;63221;51.860;-2.188;2023-02-13T00:02:04;11.70;;;5.13;;
74689;SDS011;63221;51.860;-2.188;2023-02-13T00:04:30;11.35;;;4.60;;
74689;SDS011;63221;51.860;-2.188;2023-02-13T00:06:55;11.77;;;5.00;;
74689;SDS011;63221;51.860;-2.188;2023-02-13T00:09:21;10.47;;;5.63;;
74689;SDS011;63221;51.860;-2.188;2023-02-13T00:11:46;10.73;;;6.00;;
74689;SDS011;63221;51.860;-2.188;2023-02-13T00:14:11;11.03;;;5.47;;
74689;SDS011;63221;51.860;-2.188;2023-02-13T00:16:37;10.47;;;5.10;;
74689;SDS011;63221;51.860;-2.188;2023-02-13T00:19:02;10.73;;;5.10;;
74689;SDS011;63221;51.860;-2.188;2023-02-13T00:21:28;13.80;;;6.20;;
74689;SDS011;63221;51.860;-2.188;2023-02-13T00:23:53;11.97;;;5.50;;
74689;SDS011;63221;51.860;-2.188;2023-02-13T00:26:19;13.75;;;4.90;;
74689;SDS011;63221;51.860;-2.188;2023-02-13T00:28:45;8.63;;;4.40;;
74689;SDS011;63221;51.860;-2.188;2023-02-13T00:31:14;13.00;;;6.50;;
74689;SDS011;63221;51.860;-2.188;2023-02-13T00:33:41;13.73;;;6.15;;
74689;SDS011;63221;51.860;-2.188;2023-02-13T00:38:34;9.70;;;5.38;;
74689;SDS011;63221;51.860;-2.188;2023-02-13T00:41:00;11.68;;;5.60;;
74689;SDS011;63221;51.860;-2.188;2023-02-13T00:43:25;13.60;;;6.10;;
74689;SDS011;63221;51.860;-2.188;2023-02-13T00:45:51;10.77;;;5.77;;
74689;SDS011;63221;51.860;-2.188;2023-02-13T00:48:16;12.87;;;6.63;;
74689;SDS011;63221;51.860;-2.188;2023-02-13T00:50:42;11.87;;;5.70;;
74689;SDS011;63221;51.860;-2.188;2023-02-13T00:53:07;13.73;;;6.55;;
74689;SDS011;63221;51.860;-2.188;2023-02-13T00:55:32;12.73;;;4.87;;
74689;SDS011;63221;51.860;-2.188;2023-02-13T00:57:59;11.70;;;5.82;;
74689;SDS011;63221;51.860;-2.188;2023-02-13T01:00:25;12.30;;;5.60;;
74689;SDS011;63221;51.860;-2.188;2023-02-13T01:02:50;12.43;;;5.53;;
74689;SDS011;63221;51.860;-2.188;2023-02-13T01:05:16;12.17;;;6.17;;
74689;SDS011;63221;51.860;-2.188;2023-02-13T01:07:41;17.90;;;7.53;;
74689;SDS011;63221;51.860;-2.188;2023-02-13T01:10:07;16.00;;;8.00;;
74689;SDS011;63221;51.860;-2.188;2023-02-13T01:12:32;12.87;;;6.47;;
74689;SDS011;63221;51.860;-2.188;2023-02-13T01:14:58;15.90;;;7.07;;
74689;SDS011;63221;51.860;-2.188;2023-02-13T01:17:23;13.37;;;5.70;;
74689;SDS011;63221;51.860;-2.188;2023-02-13T01:19:48;13.93;;;6.50;;
74689;SDS011;63221;51.860;-2.188;2023-02-13T01:22:14;14.33;;;5.80;;
74689;SDS011;63221;51.860;-2.188;2023-02-13T01:24:39;14.45;;;7.68;;
74689;SDS011;63221;51.860;-2.188;2023-02-13T01:27:05;18.20;;;7.43;;
74689;SDS011;63221;51.860;-2.188;2023-02-13T01:29:30;12.53;;;6.37;;
74689;SDS011;63221;51.860;-2.188;2023-02-13T01:31:56;12.85;;;6.53;;
74689;SDS011;63221;51.860;-2.188;2023-02-13T01:34:22;14.47;;;6.90;;
74689;SDS011;63221;51.860;-2.188;2023-02-13T01:36:47;17.80;;;7.43;;
74689;SDS011;63221;51.860;-2.188;2023-02-13T01:39:12;18.77;;;8.07;;
74689;SDS011;63221;51.860;-2.188;2023-02-13T01:41:38;16.33;;;6.63;;
74689;SDS011;63221;51.860;-2.188;2023-02-13T01:44:43;16.57;;;8.03;;
74689;SDS011;63221;51.860;-2.188;2023-02-13T01:47:07;16.77;;;7.28;;
74689;SDS011;63221;51.860;-2.188;2023-02-13T01:49:33;18.48;;;8.88;;
74689;SDS011;63221;51.860;-2.188;2023-02-13T01:51:59;17.60;;;7.87;;
74689;SDS011;63221;51.860;-2.188;2023-02-13T01:54:25;19.07;;;9.33;;
74689;SDS011;63221;51.860;-2.188;2023-02-13T01:56:56;17.88;;;8.65;;
74689;SDS011;63221;51.860;-2.188;2023-02-13T01:59:48;13.85;;;7.53;;
74689;SDS011;63221;51.860;-2.188;2023-02-13T02:02:16;18.10;;;8.33;;
74689;SDS011;63221;51.860;-2.188;2023-02-13T02:04:42;15.82;;;7.40;;
74689;SDS011;63221;51.860;-2.188;2023-02-13T02:07:27;15.23;;;8.23;;
74689;SDS011;63221;51.860;-2.188;2023-02-13T02:09:55;18.67;;;8.63;;
74689;SDS011;63221;51.860;-2.188;2023-02-13T02:12:36;15.55;;;8.13;;
74689;SDS011;63221;51.860;-2.188;2023-02-13T02:15:03;18.47;;;7.80;;
74689;SDS011;63221;51.860;-2.188;2023-02-13T02:17:30;17.55;;;7.60;;
74689;SDS011;63221;51.860;-2.188;2023-02-13T02:25:31;18.92;;;7.28;;
74689;SDS011;63221;51.860;-2.188;2023-02-13T02:28:09;14.88;;;8.07;;
74689;SDS011;63221;51.860;-2.188;2023-02-13T02:33:54;15.95;;;8.77;;
74689;SDS011;63221;51.860;-2.188;2023-02-13T02:44:44;20.75;;;9.80;;
74689;SDS011;63221;51.860;-2.188;2023-02-13T02:47:20;19.02;;;8.70;;
74689;SDS011;63221;51.860;-2.188;2023-02-13T03:01:17;17.65;;;7.93;;
74689;SDS011;63221;51.860;-2.188;2023-02-13T03:04:03;17.90;;;8.83;;
74689;SDS011;63221;51.860;-2.188;2023-02-13T03:06:51;20.60;;;8.23;;
74689;SDS011;63221;51.860;-2.188;2023-02-13T03:09:22;20.88;;;9.80;;
74689;SDS011;63221;51.860;-2.188;2023-02-13T03:12:10;24.63;;;9.50;;
74689;SDS011;63221;51.860;-2.188;2023-02-13T03:14:55;18.83;;;7.85;;
74689;SDS011;63221;51.860;-2.188;2023-02-13T03:17:21;20.00;;;8.87;;
74689;SDS011;63221;51.860;-2.188;2023-02-13T03:20:17;20.95;;;9.63;;
74689;SDS011;63221;51.860;-2.188;2023-02-13T03:23:25;21.53;;;8.60;;
74689;SDS011;63221;51.860;-2.188;2023-02-13T03:31:40;22.48;;;9.00;;
74689;SDS011;63221;51.860;-2.188;2023-02-13T03:34:14;22.83;;;9.43;;
74689;SDS011;63221;51.860;-2.188;2023-02-13T03:42:25;23.77;;;10.32;;
74689;SDS011;63221;51.860;-2.188;2023-02-13T03:47:43;23.13;;;11.02;;
74689;SDS011;63221;51.860;-2.188;2023-02-13T03:50:09;19.87;;;8.90;;
74689;SDS011;63221;51.860;-2.188;2023-02-13T03:52:52;21.33;;;10.20;;
74689;SDS011;63221;51.860;-2.188;2023-02-13T03:55:21;23.05;;;9.68;;
74689;SDS011;63221;51.860;-2.188;2023-02-13T03:58:08;22.33;;;9.90;;
74689;SDS011;63221;51.860;-2.188;2023-02-13T04:00:57;26.80;;;10.13;;
74689;SDS011;63221;51.860;-2.188;2023-02-13T04:03:25;25.30;;;10.43;;
74689;SDS011;63221;51.860;-2.188;2023-02-13T04:05:54;25.17;;;10.20;;
74689;SDS011;63221;51.860;-2.188;2023-02-13T04:08:41;20.23;;;9.55;;
74689;SDS011;63221;51.860;-2.188;2023-02-13T04:14:00;21.25;;;9.75;;
74689;SDS011;63221;51.860;-2.188;2023-02-13T04:16:36;28.08;;;10.82;;
74689;SDS011;63221;51.860;-2.188;2023-02-13T04:19:07;21.80;;;10.13;;
74689;SDS011;63221;51.860;-2.188;2023-02-13T04:21:33;23.40;;;10.82;;
74689;SDS011;63221;51.860;-2.188;2023-02-13T04:24:02;20.83;;;12.17;;
74689;SDS011;63221;51.860;-2.188;2023-02-13T04:26:32;23.42;;;10.20;;
74689;SDS011;63221;51.860;-2.188;2023-02-13T04:29:01;22.42;;;9.30;;
74689;SDS011;63221;51.860;-2.188;2023-02-13T04:31:27;24.53;;;10.23;;
74689;SDS011;63221;51.860;-2.188;2023-02-13T04:33:52;22.57;;;9.90;;
74689;SDS011;63221;51.860;-2.188;2023-02-13T04:36:18;17.80;;;9.77;;
74689;SDS011;63221;51.860;-2.188;2023-02-13T04:38:43;24.20;;;10.97;;
74689;SDS011;63221;51.860;-2.188;2023-02-13T04:41:09;19.70;;;10.48;;
74689;SDS011;63221;51.860;-2.188;2023-02-13T04:43:35;26.03;;;11.10;;
74689;SDS011;63221;51.860;-2.188;2023-02-13T04:46:01;24.17;;;10.55;;
74689;SDS011;63221;51.860;-2.188;2023-02-13T04:48:26;19.73;;;10.40;;
74689;SDS011;63221;51.860;-2.188;2023-02-13T04:50:52;26.87;;;11.57;;
74689;SDS011;63221;51.860;-2.188;2023-02-13T04:53:17;20.73;;;10.30;;
74689;SDS011;63221;51.860;-2.188;2023-02-13T04:55:42;26.30;;;10.57;;
74689;SDS011;63221;51.860;-2.188;2023-02-13T04:58:08;21.88;;;10.50;;
74689;SDS011;63221;51.860;-2.188;2023-02-13T05:00:33;26.30;;;10.87;;
74689;SDS011;63221;51.860;-2.188;2023-02-13T05:02:59;23.53;;;11.40;;
74689;SDS011;63221;51.860;-2.188;2023-02-13T05:05:29;20.00;;;10.02;;
74689;SDS011;63221;51.860;-2.188;2023-02-13T05:07:54;23.77;;;10.43;;
74689;SDS011;63221;51.860;-2.188;2023-02-13T05:10:20;20.77;;;10.40;;
74689;SDS011;63221;51.860;-2.188;2023-02-13T05:12:46;22.03;;;11.30;;
74689;SDS011;63221;51.860;-2.188;2023-02-13T05:15:11;22.02;;;10.27;;
74689;SDS011;63221;51.860;-2.188;2023-02-13T05:17:37;21.80;;;10.77;;
74689;SDS011;63221;51.860;-2.188;2023-02-13T05:20:02;20.42;;;9.55;;
74689;SDS011;63221;51.860;-2.188;2023-02-13T05:22:28;19.70;;;9.83;;
74689;SDS011;63221;51.860;-2.188;2023-02-13T05:25:12;27.38;;;11.02;;
74689;SDS011;63221;51.860;-2.188;2023-02-13T05:27:37;22.37;;;10.10;;
74689;SDS011;63221;51.860;-2.188;2023-02-13T05:30:03;24.43;;;10.80;;
74689;SDS011;63221;51.860;-2.188;2023-02-13T05:32:29;21.67;;;10.68;;
74689;SDS011;63221;51.860;-2.188;2023-02-13T05:34:54;20.77;;;9.50;;
74689;SDS011;63221;51.860;-2.188;2023-02-13T05:37:19;18.67;;;8.57;;
74689;SDS011;63221;51.860;-2.188;2023-02-13T05:39:45;21.47;;;9.13;;
74689;SDS011;63221;51.860;-2.188;2023-02-13T05:42:10;16.50;;;8.23;;
74689;SDS011;63221;51.860;-2.188;2023-02-13T05:44:36;21.10;;;9.13;;
74689;SDS011;63221;51.860;-2.188;2023-02-13T05:47:01;21.85;;;9.32;;
74689;SDS011;63221;51.860;-2.188;2023-02-13T05:49:27;21.73;;;10.93;;
74689;SDS011;63221;51.860;-2.188;2023-02-13T05:51:52;23.57;;;9.97;;
74689;SDS011;63221;51.860;-2.188;2023-02-13T05:54:17;22.43;;;8.67;;
74689;SDS011;63221;51.860;-2.188;2023-02-13T05:56:43;17.42;;;8.52;;
74689;SDS011;63221;51.860;-2.188;2023-02-13T05:59:08;20.80;;;9.30;;
74689;SDS011;63221;51.860;-2.188;2023-02-13T06:01:34;19.90;;;7.67;;
74689;SDS011;63221;51.860;-2.188;2023-02-13T06:03:59;23.80;;;9.60;;
74689;SDS011;63221;51.860;-2.188;2023-02-13T06:06:25;19.08;;;8.88;;
74689;SDS011;63221;51.860;-2.188;2023-02-13T06:08:50;17.30;;;8.30;;
74689;SDS011;63221;51.860;-2.188;2023-02-13T06:11:16;19.87;;;9.23;;
74689;SDS011;63221;51.860;-2.188;2023-02-13T06:13:42;22.08;;;8.93;;
74689;SDS011;63221;51.860;-2.188;2023-02-13T06:16:08;19.93;;;9.07;;
74689;SDS011;63221;51.860;-2.188;2023-02-13T06:18:34;21.60;;;10.50;;
74689;SDS011;63221;51.860;-2.188;2023-02-13T06:21:00;22.60;;;10.52;;
74689;SDS011;63221;51.860;-2.188;2023-02-13T06:23:26;22.15;;;10.77;;
74689;SDS011;63221;51.860;-2.188;2023-02-13T06:25:52;17.63;;;8.90;;
74689;SDS011;63221;51.860;-2.188;2023-02-13T06:28:17;21.50;;;9.27;;
74689;SDS011;63221;51.860;-2.188;2023-02-13T06:30:43;18.07;;;9.33;;
74689;SDS011;63221;51.860;-2.188;2023-02-13T06:33:08;22.80;;;9.57;;
74689;SDS011;63221;51.860;-2.188;2023-02-13T06:35:33;22.63;;;8.80;;
74689;SDS011;63221;51.860;-2.188;2023-02-13T06:37:59;18.47;;;8.80;;
74689;SDS011;63221;51.860;-2.188;2023-02-13T06:40:24;23.50;;;9.73;;
74689;SDS011;63221;51.860;-2.188;2023-02-13T06:42:50;21.47;;;9.40;;
74689;SDS011;63221;51.860;-2.188;2023-02-13T06:45:15;19.20;;;9.17;;
74689;SDS011;63221;51.860;-2.188;2023-02-13T06:47:42;19.53;;;9.07;;
74689;SDS011;63221;51.860;-2.188;2023-02-13T06:50:08;21.63;;;10.70;;
74689;SDS011;63221;51.860;-2.188;2023-02-13T06:52:34;20.58;;;8.88;;
74689;SDS011;63221;51.860;-2.188;2023-02-13T06:55:00;23.50;;;10.30;;
74689;SDS011;63221;51.860;-2.188;2023-02-13T06:57:25;18.77;;;9.30;;
74689;SDS011;63221;51.860;-2.188;2023-02-13T06:59:51;19.67;;;9.77;;
74689;SDS011;63221;51.860;-2.188;2023-02-13T07:02:16;21.60;;;10.43;;
74689;SDS011;63221;51.860;-2.188;2023-02-13T07:04:42;18.17;;;9.10;;
74689;SDS011;63221;51.860;-2.188;2023-02-13T07:07:07;22.23;;;9.30;;
74689;SDS011;63221;51.860;-2.188;2023-02-13T07:09:32;22.83;;;10.53;;
74689;SDS011;63221;51.860;-2.188;2023-02-13T07:12:00;20.17;;;8.17;;
74689;SDS011;63221;51.860;-2.188;2023-02-13T07:14:27;19.55;;;9.48;;
74689;SDS011;63221;51.860;-2.188;2023-02-13T07:16:52;24.93;;;10.70;;
74689;SDS011;63221;51.860;-2.188;2023-02-13T07:19:17;21.23;;;10.77;;
74689;SDS011;63221;51.860;-2.188;2023-02-13T07:21:43;21.50;;;9.13;;
74689;SDS011;63221;51.860;-2.188;2023-02-13T07:24:08;25.70;;;11.10;;
74689;SDS011;63221;51.860;-2.188;2023-02-13T07:26:34;19.40;;;9.50;;
74689;SDS011;63221;51.860;-2.188;2023-02-13T07:28:59;20.83;;;10.00;;
74689;SDS011;63221;51.860;-2.188;2023-02-13T07:31:29;18.95;;;9.45;;
74689;SDS011;63221;51.860;-2.188;2023-02-13T07:33:56;19.48;;;9.57;;
74689;SDS011;63221;51.860;-2.188;2023-02-13T07:36:22;22.10;;;10.40;;
74689;SDS011;63221;51.860;-2.188;2023-02-13T07:38:47;22.73;;;9.77;;
74689;SDS011;63221;51.860;-2.188;2023-02-13T07:41:13;22.43;;;9.27;;
74689;SDS011;63221;51.860;-2.188;2023-02-13T07:43:38;19.23;;;9.00;;
74689;SDS011;63221;51.860;-2.188;2023-02-13T07:46:04;22.80;;;9.67;;
74689;SDS011;63221;51.860;-2.188;2023-02-13T07:48:29;20.40;;;9.50;;
74689;SDS011;63221;51.860;-2.188;2023-02-13T07:50:59;20.13;;;9.27;;
74689;SDS011;63221;51.860;-2.188;2023-02-13T07:53:25;17.95;;;9.25;;
74689;SDS011;63221;51.860;-2.188;2023-02-13T07:55:50;23.70;;;10.47;;
74689;SDS011;63221;51.860;-2.188;2023-02-13T07:58:16;21.75;;;10.23;;
74689;SDS011;63221;51.860;-2.188;2023-02-13T08:00:41;20.43;;;9.17;;
74689;SDS011;63221;51.860;-2.188;2023-02-13T08:03:07;25.50;;;9.90;;
74689;SDS011;63221;51.860;-2.188;2023-02-13T08:05:35;22.02;;;10.00;;
74689;SDS011;63221;51.860;-2.188;2023-02-13T08:08:01;20.33;;;9.90;;
74689;SDS011;63221;51.860;-2.188;2023-02-13T08:10:26;21.40;;;9.48;;
74689;SDS011;63221;51.860;-2.188;2023-02-13T08:13:11;21.60;;;9.33;;
74689;SDS011;63221;51.860;-2.188;2023-02-13T08:15:37;24.27;;;10.10;;
74689;SDS011;63221;51.860;-2.188;2023-02-13T08:18:02;22.20;;;9.60;;
74689;SDS011;63221;51.860;-2.188;2023-02-13T08:20:28;20.08;;;8.93;;
74689;SDS011;63221;51.860;-2.188;2023-02-13T08:22:59;17.85;;;8.95;;
74689;SDS011;63221;51.860;-2.188;2023-02-13T08:25:27;20.27;;;9.20;;
74689;SDS011;63221;51.860;-2.188;2023-02-13T08:27:52;21.92;;;9.63;;
74689;SDS011;63221;51.860;-2.188;2023-02-13T08:30:17;23.57;;;9.60;;
74689;SDS011;63221;51.860;-2.188;2023-02-13T08:32:43;21.60;;;8.77;;
74689;SDS011;63221;51.860;-2.188;2023-02-13T08:35:08;18.33;;;8.40;;
74689;SDS011;63221;51.860;-2.188;2023-02-13T08:37:34;23.87;;;9.70;;
74689;SDS011;63221;51.860;-2.188;2023-02-13T08:39:59;22.23;;;9.57;;
74689;SDS011;63221;51.860;-2.188;2023-02-13T08:42:24;21.47;;;10.37;;
74689;SDS011;63221;51.860;-2.188;2023-02-13T08:44:50;19.60;;;9.07;;
74689;SDS011;63221;51.860;-2.188;2023-02-13T08:47:15;22.17;;;9.33;;
74689;SDS011;63221;51.860;-2.188;2023-02-13T08:49:41;23.77;;;10.30;;
74689;SDS011;63221;51.860;-2.188;2023-02-13T08:52:07;20.07;;;9.63;;
74689;SDS011;63221;51.860;-2.188;2023-02-13T08:54:32;18.85;;;9.45;;
74689;SDS011;63221;51.860;-2.188;2023-02-13T08:56:59;24.95;;;10.25;;
74689;SDS011;63221;51.860;-2.188;2023-02-13T08:59:24;20.20;;;9.63;;
74689;SDS011;63221;51.860;-2.188;2023-02-13T09:01:50;21.00;;;9.40;;
74689;SDS011;63221;51.860;-2.188;2023-02-13T09:04:15;22.27;;;10.27;;
74689;SDS011;63221;51.860;-2.188;2023-02-13T09:06:42;21.05;;;9.77;;
74689;SDS011;63221;51.860;-2.188;2023-02-13T09:09:07;18.50;;;7.67;;
74689;SDS011;63221;51.860;-2.188;2023-02-13T09:11:33;21.93;;;10.27;;
74689;SDS011;63221;51.860;-2.188;2023-02-13T09:13:58;22.70;;;11.07;;
74689;SDS011;63221;51.860;-2.188;2023-02-13T09:16:24;22.93;;;9.70;;
74689;SDS011;63221;51.860;-2.188;2023-02-13T09:18:50;26.00;;;10.70;;
74689;SDS011;63221;51.860;-2.188;2023-02-13T09:21:16;22.98;;;10.40;;
74689;SDS011;63221;51.860;-2.188;2023-02-13T09:23:42;21.10;;;9.32;;
74689;SDS011;63221;51.860;-2.188;2023-02-13T09:26:11;23.10;;;9.63;;
74689;SDS011;63221;51.860;-2.188;2023-02-13T09:28:38;21.13;;;9.27;;
74689;SDS011;63221;51.860;-2.188;2023-02-13T09:31:08;20.13;;;9.55;;
74689;SDS011;63221;51.860;-2.188;2023-02-13T09:33:35;21.92;;;10.73;;
74689;SDS011;63221;51.860;-2.188;2023-02-13T09:36:04;22.00;;;10.07;;
74689;SDS011;63221;51.860;-2.188;2023-02-13T09:38:31;21.98;;;10.35;;
74689;SDS011;63221;51.860;-2.188;2023-02-13T09:41:04;25.10;;;9.68;;
74689;SDS011;63221;51.860;-2.188;2023-02-13T09:46:21;19.57;;;9.57;;
74689;SDS011;63221;51.860;-2.188;2023-02-13T09:48:53;24.05;;;10.18;;
74689;SDS011;63221;51.860;-2.188;2023-02-13T09:51:21;20.75;;;10.52;;
74689;SDS011;63221;51.860;-2.188;2023-02-13T09:53:55;21.55;;;10.50;;
74689;SDS011;63221;51.860;-2.188;2023-02-13T09:56:31;19.15;;;9.55;;
74689;SDS011;63221;51.860;-2.188;2023-02-13T10:01:56;20.30;;;10.43;;
74689;SDS011;63221;51.860;-2.188;2023-02-13T10:04:45;17.65;;;9.43;;
74689;SDS011;63221;51.860;-2.188;2023-02-13T10:07:17;25.63;;;11.10;;
74689;SDS011;63221;51.860;-2.188;2023-02-13T10:13:06;27.63;;;11.20;;
74689;SDS011;63221;51.860;-2.188;2023-02-13T10:16:02;20.52;;;9.70;;
74689;SDS011;63221;51.860;-2.188;2023-02-13T10:18:42;22.08;;;10.20;;
74689;SDS011;63221;51.860;-2.188;2023-02-13T10:21:11;22.60;;;10.32;;
74689;SDS011;63221;51.860;-2.188;2023-02-13T10:23:39;23.55;;;10.30;;
74689;SDS011;63221;51.860;-2.188;2023-02-13T10:26:21;20.00;;;9.07;;
74689;SDS011;63221;51.860;-2.188;2023-02-13T10:28:58;24.60;;;10.85;;
74689;SDS011;63221;51.860;-2.188;2023-02-13T10:31:45;22.73;;;10.60;;
74689;SDS011;63221;51.860;-2.188;2023-02-13T10:34:16;17.55;;;8.65;;
74689;SDS011;63221;51.860;-2.188;2023-02-13T10:36:43;24.17;;;10.10;;
74689;SDS011;63221;51.860;-2.188;2023-02-13T10:41:48;24.05;;;10.18;;
74689;SDS011;63221;51.860;-2.188;2023-02-13T10:52:41;27.53;;;11.67;;
74689;SDS011;63221;51.860;-2.188;2023-02-13T10:57:59;27.77;;;10.18;;
74689;SDS011;63221;51.860;-2.188;2023-02-13T11:00:37;30.27;;;11.32;;
74689;SDS011;63221;51.860;-2.188;2023-02-13T11:03:04;24.42;;;10.02;;
74689;SDS011;63221;51.860;-2.188;2023-02-13T11:05:39;24.87;;;11.33;;
74689;SDS011;63221;51.860;-2.188;2023-02-13T11:08:39;24.20;;;9.40;;
74689;SDS011;63221;51.860;-2.188;2023-02-13T11:10:58;21.27;;;10.60;;
74689;SDS011;63221;51.860;-2.188;2023-02-13T11:13:25;22.42;;;10.23;;
74689;SDS011;63221;51.860;-2.188;2023-02-13T11:15:56;23.90;;;10.65;;
74689;SDS011;63221;51.860;-2.188;2023-02-13T11:18:24;22.20;;;12.33;;
74689;SDS011;63221;51.860;-2.188;2023-02-13T11:21:10;24.63;;;11.25;;
74689;SDS011;63221;51.860;-2.188;2023-02-13T11:23:50;21.77;;;8.98;;
74689;SDS011;63221;51.860;-2.188;2023-02-13T11:26:21;21.02;;;9.55;;
74689;SDS011;63221;51.860;-2.188;2023-02-13T11:31:30;18.03;;;9.00;;
74689;SDS011;63221;51.860;-2.188;2023-02-13T11:33:57;22.77;;;9.93;;
74689;SDS011;63221;51.860;-2.188;2023-02-13T11:38:57;26.35;;;11.23;;
74689;SDS011;63221;51.860;-2.188;2023-02-13T11:41:23;25.52;;;10.90;;
74689;SDS011;63221;51.860;-2.188;2023-02-13T11:43:52;23.43;;;10.50;;
74689;SDS011;63221;51.860;-2.188;2023-02-13T11:46:25;22.98;;;10.32;;
74689;SDS011;63221;51.860;-2.188;2023-02-13T11:56:49;22.53;;;9.70;;
74689;SDS011;63221;51.860;-2.188;2023-02-13T11:59:16;24.17;;;10.85;;
74689;SDS011;63221;51.860;-2.188;2023-02-13T12:01:41;23.40;;;10.23;;
74689;SDS011;63221;51.860;-2.188;2023-02-13T12:06:40;21.92;;;10.75;;
74689;SDS011;63221;51.860;-2.188;2023-02-13T12:09:12;22.93;;;10.00;;
74689;SDS011;63221;51.860;-2.188;2023-02-13T12:11:49;21.38;;;11.32;;
74689;SDS011;63221;51.860;-2.188;2023-02-13T12:14:20;22.88;;;9.13;;
74689;SDS011;63221;51.860;-2.188;2023-02-13T12:16:48;24.77;;;10.67;;
74689;SDS011;63221;51.860;-2.188;2023-02-13T12:19:18;20.75;;;10.75;;
74689;SDS011;63221;51.860;-2.188;2023-02-13T12:22:00;25.88;;;11.50;;
74689;SDS011;63221;51.860;-2.188;2023-02-13T12:27:29;23.23;;;10.70;;
74689;SDS011;63221;51.860;-2.188;2023-02-13T13:03:02;22.63;;;10.57;;
74689;SDS011;63221;51.860;-2.188;2023-02-13T13:06:05;24.55;;;10.75;;
74689;SDS011;63221;51.860;-2.188;2023-02-13T13:08:59;20.08;;;9.70;;
74689;SDS011;63221;51.860;-2.188;2023-02-13T13:14:22;21.67;;;11.32;;
74689;SDS011;63221;51.860;-2.188;2023-02-13T13:17:05;22.88;;;10.73;;
74689;SDS011;63221;51.860;-2.188;2023-02-13T13:22:55;22.10;;;10.32;;
74689;SDS011;63221;51.860;-2.188;2023-02-13T13:25:30;22.10;;;10.17;;
74689;SDS011;63221;51.860;-2.188;2023-02-13T13:28:01;22.80;;;11.07;;
74689;SDS011;63221;51.860;-2.188;2023-02-13T13:30:32;19.25;;;11.02;;
74689;SDS011;63221;51.860;-2.188;2023-02-13T13:33:02;20.85;;;9.52;;
74689;SDS011;63221;51.860;-2.188;2023-02-13T13:35:28;21.05;;;10.95;;
74689;SDS011;63221;51.860;-2.188;2023-02-13T13:37:56;19.43;;;10.47;;
74689;SDS011;63221;51.860;-2.188;2023-02-13T13:40:48;23.52;;;10.45;;
74689;SDS011;63221;51.860;-2.188;2023-02-13T13:43:19;20.25;;;10.27;;
74689;SDS011;63221;51.860;-2.188;2023-02-13T13:51:19;19.57;;;10.07;;
74689;SDS011;63221;51.860;-2.188;2023-02-13T14:05:01;20.03;;;10.73;;
74689;SDS011;63221;51.860;-2.188;2023-02-13T14:08:52;21.92;;;10.43;;
74689;SDS011;63221;51.860;-2.188;2023-02-13T14:10:58;21.77;;;11.93;;
74689;SDS011;63221;51.860;-2.188;2023-02-13T14:13:30;19.33;;;10.60;;
74689;SDS011;63221;51.860;-2.188;2023-02-13T14:16:00;20.55;;;10.40;;
74689;SDS011;63221;51.860;-2.188;2023-02-13T14:18:26;21.40;;;11.27;;
74689;SDS011;63221;51.860;-2.188;2023-02-13T14:20:53;25.33;;;10.52;;
74689;SDS011;63221;51.860;-2.188;2023-02-13T14:26:18;22.38;;;11.00;;
74689;SDS011;63221;51.860;-2.188;2023-02-13T14:34:01;21.87;;;11.03;;
74689;SDS011;63221;51.860;-2.188;2023-02-13T14:36:29;21.30;;;10.77;;
74689;SDS011;63221;51.860;-2.188;2023-02-13T14:44:26;19.77;;;10.95;;
74689;SDS011;63221;51.860;-2.188;2023-02-13T14:46:54;20.87;;;11.33;;
74689;SDS011;63221;51.860;-2.188;2023-02-13T14:49:24;20.48;;;11.32;;
74689;SDS011;63221;51.860;-2.188;2023-02-13T14:51:52;23.20;;;11.63;;
74689;SDS011;63221;51.860;-2.188;2023-02-13T14:56:49;22.50;;;11.27;;
74689;SDS011;63221;51.860;-2.188;2023-02-13T14:59:17;21.60;;;11.57;;
74689;SDS011;63221;51.860;-2.188;2023-02-13T15:01:45;22.50;;;10.40;;
74689;SDS011;63221;51.860;-2.188;2023-02-13T15:04:17;21.63;;;11.25;;
74689;SDS011;63221;51.860;-2.188;2023-02-13T15:07:05;19.95;;;11.13;;
74689;SDS011;63221;51.860;-2.188;2023-02-13T15:09:40;24.75;;;11.55;;
74689;SDS011;63221;51.860;-2.188;2023-02-13T15:12:24;22.60;;;11.10;;
74689;SDS011;63221;51.860;-2.188;2023-02-13T15:14:52;22.27;;;10.80;;
74689;SDS011;63221;51.860;-2.188;2023-02-13T15:17:28;19.73;;;10.85;;
74689;SDS011;63221;51.860;-2.188;2023-02-13T15:22:37;18.20;;;10.73;;
74689;SDS011;63221;51.860;-2.188;2023-02-13T15:25:04;19.75;;;10.57;;
74689;SDS011;63221;51.860;-2.188;2023-02-13T15:27:31;19.58;;;10.90;;
74689;SDS011;63221;51.860;-2.188;2023-02-13T15:30:16;18.75;;;10.15;;
74689;SDS011;63221;51.860;-2.188;2023-02-13T15:32:42;19.93;;;10.47;;
74689;SDS011;63221;51.860;-2.188;2023-02-13T15:35:24;21.23;;;11.05;;
74689;SDS011;63221;51.860;-2.188;2023-02-13T15:37:51;21.43;;;10.60;;
74689;SDS011;63221;51.860;-2.188;2023-02-13T15:40:27;19.08;;;11.25;;
74689;SDS011;63221;51.860;-2.188;2023-02-13T15:42:59;20.25;;;11.15;;
74689;SDS011;63221;51.860;-2.188;2023-02-13T15:45:26;23.05;;;11.27;;
74689;SDS011;63221;51.860;-2.188;2023-02-13T15:47:53;19.90;;;10.40;;
74689;SDS011;63221;51.860;-2.188;2023-02-13T15:50:30;22.20;;;12.13;;
74689;SDS011;63221;51.860;-2.188;2023-02-13T15:52:58;22.50;;;11.80;;
74689;SDS011;63221;51.860;-2.188;2023-02-13T15:55:29;22.67;;;11.05;;
74689;SDS011;63221;51.860;-2.188;2023-02-13T15:57:57;22.63;;;10.02;;
74689;SDS011;63221;51.860;-2.188;2023-02-13T16:00:24;24.83;;;11.88;;
74689;SDS011;63221;51.860;-2.188;2023-02-13T16:02:51;21.63;;;12.10;;
74689;SDS011;63221;51.860;-2.188;2023-02-13T16:05:18;21.50;;;11.20;;
74689;SDS011;63221;51.860;-2.188;2023-02-13T16:07:47;21.52;;;11.27;;
74689;SDS011;63221;51.860;-2.188;2023-02-13T16:10:15;23.80;;;11.45;;
74689;SDS011;63221;51.860;-2.188;2023-02-13T16:12:45;24.63;;;10.93;;
74689;SDS011;63221;51.860;-2.188;2023-02-13T16:15:14;30.08;;;11.45;;
74689;SDS011;63221;51.860;-2.188;2023-02-13T16:17:41;21.52;;;10.60;;
74689;SDS011;63221;51.860;-2.188;2023-02-13T16:27:40;23.65;;;11.20;;
74689;SDS011;63221;51.860;-2.188;2023-02-13T16:33:18;22.95;;;11.48;;
74689;SDS011;63221;51.860;-2.188;2023-02-13T16:35:53;21.60;;;11.82;;
74689;SDS011;63221;51.860;-2.188;2023-02-13T16:38:25;22.60;;;10.70;;
74689;SDS011;63221;51.860;-2.188;2023-02-13T16:40:52;23.20;;;11.63;;
74689;SDS011;63221;51.860;-2.188;2023-02-13T16:46:28;23.55;;;10.27;;
74689;SDS011;63221;51.860;-2.188;2023-02-13T17:04:54;24.63;;;11.17;;
74689;SDS011;63221;51.860;-2.188;2023-02-13T17:07:29;21.35;;;10.80;;
74689;SDS011;63221;51.860;-2.188;2023-02-13T17:09:57;23.15;;;11.98;;
74689;SDS011;63221;51.860;-2.188;2023-02-13T17:12:24;24.10;;;11.13;;
74689;SDS011;63221;51.860;-2.188;2023-02-13T17:14:49;27.48;;;11.95;;
74689;SDS011;63221;51.860;-2.188;2023-02-13T17:17:16;26.20;;;12.37;;
74689;SDS011;63221;51.860;-2.188;2023-02-13T17:19:44;26.58;;;13.18;;
74689;SDS011;63221;51.860;-2.188;2023-02-13T17:22:20;24.33;;;11.77;;
74689;SDS011;63221;51.860;-2.188;2023-02-13T17:24:56;24.93;;;11.40;;
74689;SDS011;63221;51.860;-2.188;2023-02-13T17:27:22;23.98;;;12.30;;
74689;SDS011;63221;51.860;-2.188;2023-02-13T17:29:47;25.50;;;12.55;;
74689;SDS011;63221;51.860;-2.188;2023-02-13T17:32:14;23.37;;;11.37;;
74689;SDS011;63221;51.860;-2.188;2023-02-13T17:34:41;26.67;;;12.18;;
74689;SDS011;63221;51.860;-2.188;2023-02-13T17:37:17;26.80;;;12.30;;
74689;SDS011;63221;51.860;-2.188;2023-02-13T17:39:52;32.10;;;14.73;;
74689;SDS011;63221;51.860;-2.188;2023-02-13T17:42:19;32.95;;;16.20;;
74689;SDS011;63221;51.860;-2.188;2023-02-13T17:44:46;27.83;;;16.40;;